sensor_id;sensor_type;location;lat;lon;timestamp;P1;durP1;ratioP1;P2;durP2;ratioP2
55090;SDS011;40985;53.180;5.800;2023-12-14T00:01:11;9.65;;;3.92;;
55090;SDS011;40985;53.180;5.800;2023-12-14T00:03:38;8.60;;;4.05;;
55090;SDS011;40985;53.180;5.800;2023-12-14T00:06:09;13.50;;;5.28;;
55090;SDS011;40985;53.180;5.800;2023-12-14T00:08:35;8.38;;;4.00;;
55090;SDS011;40985;53.180;5.800;2023-12-14T00:11:04;5.95;;;3.33;;
55090;SDS011;40985;53.180;5.800;2023-12-14T00:13:31;8.77;;;4.05;;
55090;SDS011;40985;53.180;5.800;2023-12-14T00:15:57;5.90;;;3.63;;
55090;SDS011;40985;53.180;5.800;2023-12-14T00:18:23;9.23;;;4.18;;
55090;SDS011;40985;53.180;5.800;2023-12-14T00:20:49;7.03;;;3.70;;
55090;SDS011;40985;53.180;5.800;2023-12-14T00:23:15;7.13;;;3.55;;
55090;SDS011;40985;53.180;5.800;2023-12-14T00:25:41;8.05;;;3.35;;
55090;SDS011;40985;53.180;5.800;2023-12-14T00:28:06;8.65;;;3.10;;
55090;SDS011;40985;53.180;5.800;2023-12-14T00:30:32;9.43;;;3.67;;
55090;SDS011;40985;53.180;5.800;2023-12-14T00:32:58;8.82;;;3.35;;
55090;SDS011;40985;53.180;5.800;2023-12-14T00:35:23;4.78;;;3.25;;
55090;SDS011;40985;53.180;5.800;2023-12-14T00:37:49;8.02;;;3.50;;
55090;SDS011;40985;53.180;5.800;2023-12-14T00:40:15;6.55;;;3.45;;
55090;SDS011;40985;53.180;5.800;2023-12-14T00:42:40;6.65;;;2.55;;
55090;SDS011;40985;53.180;5.800;2023-12-14T00:45:06;4.93;;;2.22;;
55090;SDS011;40985;53.180;5.800;2023-12-14T00:47:32;4.97;;;2.17;;
55090;SDS011;40985;53.180;5.800;2023-12-14T00:49:58;10.65;;;2.85;;
55090;SDS011;40985;53.180;5.800;2023-12-14T00:52:24;7.00;;;2.20;;
55090;SDS011;40985;53.180;5.800;2023-12-14T00:54:49;6.82;;;3.10;;
55090;SDS011;40985;53.180;5.800;2023-12-14T00:57:15;7.05;;;3.20;;
55090;SDS011;40985;53.180;5.800;2023-12-14T00:59:41;5.18;;;3.30;;
55090;SDS011;40985;53.180;5.800;2023-12-14T01:02:07;8.05;;;3.63;;
55090;SDS011;40985;53.180;5.800;2023-12-14T01:04:32;10.13;;;3.97;;
55090;SDS011;40985;53.180;5.800;2023-12-14T01:06:58;7.88;;;3.65;;
55090;SDS011;40985;53.180;5.800;2023-12-14T01:09:24;4.22;;;2.20;;
55090;SDS011;40985;53.180;5.800;2023-12-14T01:11:49;2.30;;;1.92;;
55090;SDS011;40985;53.180;5.800;2023-12-14T01:14:15;3.50;;;2.55;;
55090;SDS011;40985;53.180;5.800;2023-12-14T01:16:41;4.10;;;2.40;;
55090;SDS011;40985;53.180;5.800;2023-12-14T01:19:06;5.65;;;2.40;;
55090;SDS011;40985;53.180;5.800;2023-12-14T01:21:32;5.50;;;2.75;;
55090;SDS011;40985;53.180;5.800;2023-12-14T01:23:58;3.70;;;2.40;;
55090;SDS011;40985;53.180;5.800;2023-12-14T01:26:26;5.72;;;3.20;;
55090;SDS011;40985;53.180;5.800;2023-12-14T01:28:52;5.65;;;2.78;;
55090;SDS011;40985;53.180;5.800;2023-12-14T01:31:17;4.90;;;3.00;;
55090;SDS011;40985;53.180;5.800;2023-12-14T01:33:44;5.45;;;2.70;;
55090;SDS011;40985;53.180;5.800;2023-12-14T01:36:11;6.15;;;3.50;;
55090;SDS011;40985;53.180;5.800;2023-12-14T01:38:36;5.72;;;3.38;;
55090;SDS011;40985;53.180;5.800;2023-12-14T01:41:03;5.25;;;3.65;;
55090;SDS011;40985;53.180;5.800;2023-12-14T01:43:30;5.28;;;2.83;;
55090;SDS011;40985;53.180;5.800;2023-12-14T01:45:56;7.35;;;3.83;;
55090;SDS011;40985;53.180;5.800;2023-12-14T01:48:21;5.05;;;3.03;;
55090;SDS011;40985;53.180;5.800;2023-12-14T01:50:47;4.97;;;3.45;;
55090;SDS011;40985;53.180;5.800;2023-12-14T01:53:13;5.47;;;3.33;;
55090;SDS011;40985;53.180;5.800;2023-12-14T01:55:38;6.07;;;3.35;;
55090;SDS011;40985;53.180;5.800;2023-12-14T01:58:04;6.00;;;3.38;;
55090;SDS011;40985;53.180;5.800;2023-12-14T02:00:40;5.45;;;3.33;;
55090;SDS011;40985;53.180;5.800;2023-12-14T02:03:31;7.72;;;4.03;;
55090;SDS011;40985;53.180;5.800;2023-12-14T02:05:56;7.35;;;4.20;;
55090;SDS011;40985;53.180;5.800;2023-12-14T02:08:23;8.45;;;3.92;;
55090;SDS011;40985;53.180;5.800;2023-12-14T02:10:50;6.30;;;3.85;;
55090;SDS011;40985;53.180;5.800;2023-12-14T02:13:15;7.05;;;4.35;;
55090;SDS011;40985;53.180;5.800;2023-12-14T02:15:41;6.65;;;4.78;;
55090;SDS011;40985;53.180;5.800;2023-12-14T02:18:07;9.65;;;4.68;;
55090;SDS011;40985;53.180;5.800;2023-12-14T02:20:33;9.70;;;4.57;;
55090;SDS011;40985;53.180;5.800;2023-12-14T02:22:59;8.38;;;4.43;;
55090;SDS011;40985;53.180;5.800;2023-12-14T02:25:24;8.20;;;4.30;;
55090;SDS011;40985;53.180;5.800;2023-12-14T02:27:50;6.72;;;4.53;;
55090;SDS011;40985;53.180;5.800;2023-12-14T02:30:17;6.25;;;4.25;;
55090;SDS011;40985;53.180;5.800;2023-12-14T02:32:43;11.30;;;4.78;;
55090;SDS011;40985;53.180;5.800;2023-12-14T02:35:09;6.55;;;4.03;;
55090;SDS011;40985;53.180;5.800;2023-12-14T02:37:35;5.80;;;4.22;;
55090;SDS011;40985;53.180;5.800;2023-12-14T02:40:06;7.13;;;4.90;;
55090;SDS011;40985;53.180;5.800;2023-12-14T02:42:32;8.75;;;5.03;;
55090;SDS011;40985;53.180;5.800;2023-12-14T02:44:58;6.50;;;4.43;;
55090;SDS011;40985;53.180;5.800;2023-12-14T02:47:24;6.47;;;5.03;;
55090;SDS011;40985;53.180;5.800;2023-12-14T02:49:49;7.80;;;5.07;;
55090;SDS011;40985;53.180;5.800;2023-12-14T02:52:15;6.78;;;4.57;;
55090;SDS011;40985;53.180;5.800;2023-12-14T02:54:41;6.32;;;4.88;;
55090;SDS011;40985;53.180;5.800;2023-12-14T02:57:07;8.73;;;5.35;;
55090;SDS011;40985;53.180;5.800;2023-12-14T02:59:32;10.50;;;5.55;;
55090;SDS011;40985;53.180;5.800;2023-12-14T03:01:58;6.63;;;5.20;;
55090;SDS011;40985;53.180;5.800;2023-12-14T03:04:24;7.68;;;4.93;;
55090;SDS011;40985;53.180;5.800;2023-12-14T03:06:50;6.72;;;4.80;;
55090;SDS011;40985;53.180;5.800;2023-12-14T03:09:16;7.68;;;4.88;;
55090;SDS011;40985;53.180;5.800;2023-12-14T03:11:44;9.73;;;5.47;;
55090;SDS011;40985;53.180;5.800;2023-12-14T03:14:09;8.48;;;5.53;;
55090;SDS011;40985;53.180;5.800;2023-12-14T03:16:36;11.40;;;6.07;;
55090;SDS011;40985;53.180;5.800;2023-12-14T03:19:02;11.70;;;5.72;;
55090;SDS011;40985;53.180;5.800;2023-12-14T03:21:28;9.85;;;6.53;;
55090;SDS011;40985;53.180;5.800;2023-12-14T03:23:54;12.25;;;6.55;;
55090;SDS011;40985;53.180;5.800;2023-12-14T03:26:20;13.02;;;6.15;;
55090;SDS011;40985;53.180;5.800;2023-12-14T03:28:46;8.88;;;5.40;;
55090;SDS011;40985;53.180;5.800;2023-12-14T03:31:12;9.65;;;5.80;;
55090;SDS011;40985;53.180;5.800;2023-12-14T03:33:41;11.85;;;6.55;;
55090;SDS011;40985;53.180;5.800;2023-12-14T03:36:07;12.30;;;6.93;;
55090;SDS011;40985;53.180;5.800;2023-12-14T03:38:33;15.20;;;6.97;;
55090;SDS011;40985;53.180;5.800;2023-12-14T03:40:58;12.32;;;6.35;;
55090;SDS011;40985;53.180;5.800;2023-12-14T03:43:24;12.23;;;7.15;;
55090;SDS011;40985;53.180;5.800;2023-12-14T03:45:50;13.77;;;7.20;;
55090;SDS011;40985;53.180;5.800;2023-12-14T03:48:16;14.77;;;7.55;;
55090;SDS011;40985;53.180;5.800;2023-12-14T03:50:41;16.77;;;7.80;;
55090;SDS011;40985;53.180;5.800;2023-12-14T03:53:07;17.58;;;8.00;;
55090;SDS011;40985;53.180;5.800;2023-12-14T03:55:33;15.70;;;7.57;;
55090;SDS011;40985;53.180;5.800;2023-12-14T03:57:59;10.75;;;6.57;;
55090;SDS011;40985;53.180;5.800;2023-12-14T04:00:25;13.13;;;7.57;;
55090;SDS011;40985;53.180;5.800;2023-12-14T04:02:50;14.85;;;7.55;;
55090;SDS011;40985;53.180;5.800;2023-12-14T04:05:16;11.85;;;6.85;;
55090;SDS011;40985;53.180;5.800;2023-12-14T04:07:42;15.38;;;7.07;;
55090;SDS011;40985;53.180;5.800;2023-12-14T04:10:08;15.57;;;8.23;;
55090;SDS011;40985;53.180;5.800;2023-12-14T04:12:34;15.63;;;7.13;;
55090;SDS011;40985;53.180;5.800;2023-12-14T04:15:01;12.88;;;6.95;;
55090;SDS011;40985;53.180;5.800;2023-12-14T04:17:27;11.75;;;6.63;;
55090;SDS011;40985;53.180;5.800;2023-12-14T04:19:53;18.05;;;7.10;;
55090;SDS011;40985;53.180;5.800;2023-12-14T04:22:18;12.93;;;7.25;;
55090;SDS011;40985;53.180;5.800;2023-12-14T04:24:44;14.82;;;7.05;;
55090;SDS011;40985;53.180;5.800;2023-12-14T04:27:10;12.65;;;6.82;;
55090;SDS011;40985;53.180;5.800;2023-12-14T04:29:35;15.52;;;6.82;;
55090;SDS011;40985;53.180;5.800;2023-12-14T04:32:01;14.20;;;7.47;;
55090;SDS011;40985;53.180;5.800;2023-12-14T04:34:27;15.55;;;8.55;;
55090;SDS011;40985;53.180;5.800;2023-12-14T04:36:53;15.85;;;8.30;;
55090;SDS011;40985;53.180;5.800;2023-12-14T04:39:22;19.58;;;8.25;;
55090;SDS011;40985;53.180;5.800;2023-12-14T04:41:50;15.10;;;7.85;;
55090;SDS011;40985;53.180;5.800;2023-12-14T04:44:16;14.75;;;7.10;;
55090;SDS011;40985;53.180;5.800;2023-12-14T04:46:41;15.02;;;7.72;;
55090;SDS011;40985;53.180;5.800;2023-12-14T04:49:07;13.20;;;7.25;;
55090;SDS011;40985;53.180;5.800;2023-12-14T04:51:33;12.60;;;7.55;;
55090;SDS011;40985;53.180;5.800;2023-12-14T04:53:59;13.38;;;7.57;;
55090;SDS011;40985;53.180;5.800;2023-12-14T04:56:24;17.05;;;8.40;;
55090;SDS011;40985;53.180;5.800;2023-12-14T04:58:50;12.15;;;7.70;;
55090;SDS011;40985;53.180;5.800;2023-12-14T05:01:16;15.60;;;7.53;;
55090;SDS011;40985;53.180;5.800;2023-12-14T05:03:41;13.93;;;7.15;;
55090;SDS011;40985;53.180;5.800;2023-12-14T05:06:07;16.98;;;7.72;;
55090;SDS011;40985;53.180;5.800;2023-12-14T05:08:33;14.13;;;7.65;;
55090;SDS011;40985;53.180;5.800;2023-12-14T05:10:59;15.63;;;7.50;;
55090;SDS011;40985;53.180;5.800;2023-12-14T05:13:25;16.10;;;8.45;;
55090;SDS011;40985;53.180;5.800;2023-12-14T05:15:50;20.58;;;7.95;;
55090;SDS011;40985;53.180;5.800;2023-12-14T05:18:19;13.88;;;7.47;;
55090;SDS011;40985;53.180;5.800;2023-12-14T05:20:45;12.52;;;7.63;;
55090;SDS011;40985;53.180;5.800;2023-12-14T05:23:13;14.68;;;8.05;;
55090;SDS011;40985;53.180;5.800;2023-12-14T05:25:39;13.48;;;7.38;;
55090;SDS011;40985;53.180;5.800;2023-12-14T05:28:05;17.00;;;8.30;;
55090;SDS011;40985;53.180;5.800;2023-12-14T05:30:30;16.70;;;8.45;;
55090;SDS011;40985;53.180;5.800;2023-12-14T05:32:56;15.25;;;8.23;;
55090;SDS011;40985;53.180;5.800;2023-12-14T05:35:22;16.98;;;8.27;;
55090;SDS011;40985;53.180;5.800;2023-12-14T05:37:47;16.23;;;8.55;;
55090;SDS011;40985;53.180;5.800;2023-12-14T05:40:13;14.88;;;8.23;;
55090;SDS011;40985;53.180;5.800;2023-12-14T05:42:39;15.80;;;9.10;;
55090;SDS011;40985;53.180;5.800;2023-12-14T05:45:05;16.15;;;7.45;;
55090;SDS011;40985;53.180;5.800;2023-12-14T05:47:32;15.20;;;7.90;;
55090;SDS011;40985;53.180;5.800;2023-12-14T05:49:59;16.23;;;7.18;;
55090;SDS011;40985;53.180;5.800;2023-12-14T05:52:26;14.60;;;7.95;;
55090;SDS011;40985;53.180;5.800;2023-12-14T05:54:53;14.20;;;7.35;;
55090;SDS011;40985;53.180;5.800;2023-12-14T05:57:18;13.48;;;7.38;;
55090;SDS011;40985;53.180;5.800;2023-12-14T05:59:44;13.93;;;8.48;;
55090;SDS011;40985;53.180;5.800;2023-12-14T06:02:09;19.48;;;8.23;;
55090;SDS011;40985;53.180;5.800;2023-12-14T06:04:35;13.20;;;8.05;;
55090;SDS011;40985;53.180;5.800;2023-12-14T06:07:01;15.52;;;7.90;;
55090;SDS011;40985;53.180;5.800;2023-12-14T06:09:27;16.80;;;8.65;;
55090;SDS011;40985;53.180;5.800;2023-12-14T06:12:00;16.25;;;8.13;;
55090;SDS011;40985;53.180;5.800;2023-12-14T06:14:30;14.10;;;8.15;;
55090;SDS011;40985;53.180;5.800;2023-12-14T06:16:55;13.65;;;9.30;;
55090;SDS011;40985;53.180;5.800;2023-12-14T06:19:22;14.00;;;7.78;;
55090;SDS011;40985;53.180;5.800;2023-12-14T06:21:47;12.38;;;8.35;;
55090;SDS011;40985;53.180;5.800;2023-12-14T06:24:14;18.67;;;8.32;;
55090;SDS011;40985;53.180;5.800;2023-12-14T06:26:40;13.63;;;8.20;;
55090;SDS011;40985;53.180;5.800;2023-12-14T06:29:06;16.75;;;8.43;;
55090;SDS011;40985;53.180;5.800;2023-12-14T06:31:32;13.18;;;8.00;;
55090;SDS011;40985;53.180;5.800;2023-12-14T06:33:58;13.35;;;8.07;;
55090;SDS011;40985;53.180;5.800;2023-12-14T06:36:25;16.08;;;7.85;;
55090;SDS011;40985;53.180;5.800;2023-12-14T06:38:54;14.95;;;7.97;;
55090;SDS011;40985;53.180;5.800;2023-12-14T06:41:20;16.75;;;8.27;;
55090;SDS011;40985;53.180;5.800;2023-12-14T06:43:47;17.05;;;8.88;;
55090;SDS011;40985;53.180;5.800;2023-12-14T06:46:13;16.95;;;8.45;;
55090;SDS011;40985;53.180;5.800;2023-12-14T06:48:38;14.00;;;8.30;;
55090;SDS011;40985;53.180;5.800;2023-12-14T06:51:04;13.43;;;7.43;;
55090;SDS011;40985;53.180;5.800;2023-12-14T06:53:30;16.05;;;8.48;;
55090;SDS011;40985;53.180;5.800;2023-12-14T06:55:55;18.50;;;8.32;;
55090;SDS011;40985;53.180;5.800;2023-12-14T06:58:21;15.18;;;7.95;;
55090;SDS011;40985;53.180;5.800;2023-12-14T07:00:47;15.48;;;7.55;;
55090;SDS011;40985;53.180;5.800;2023-12-14T07:03:13;16.65;;;8.13;;
55090;SDS011;40985;53.180;5.800;2023-12-14T07:05:38;16.70;;;8.23;;
55090;SDS011;40985;53.180;5.800;2023-12-14T07:08:04;11.35;;;6.75;;
55090;SDS011;40985;53.180;5.800;2023-12-14T07:10:30;11.85;;;7.70;;
55090;SDS011;40985;53.180;5.800;2023-12-14T07:12:56;15.43;;;7.53;;
55090;SDS011;40985;53.180;5.800;2023-12-14T07:15:21;17.60;;;7.45;;
55090;SDS011;40985;53.180;5.800;2023-12-14T07:17:47;11.27;;;6.53;;
55090;SDS011;40985;53.180;5.800;2023-12-14T07:20:13;16.70;;;7.03;;
55090;SDS011;40985;53.180;5.800;2023-12-14T07:22:39;13.98;;;8.10;;
55090;SDS011;40985;53.180;5.800;2023-12-14T07:25:04;11.52;;;7.28;;
55090;SDS011;40985;53.180;5.800;2023-12-14T07:27:30;12.63;;;6.53;;
55090;SDS011;40985;53.180;5.800;2023-12-14T07:29:56;13.40;;;6.45;;
55090;SDS011;40985;53.180;5.800;2023-12-14T07:32:21;16.40;;;8.00;;
55090;SDS011;40985;53.180;5.800;2023-12-14T07:34:47;13.05;;;7.13;;
55090;SDS011;40985;53.180;5.800;2023-12-14T07:37:13;14.57;;;7.47;;
55090;SDS011;40985;53.180;5.800;2023-12-14T07:39:38;11.35;;;6.90;;
55090;SDS011;40985;53.180;5.800;2023-12-14T07:42:04;16.35;;;7.80;;
55090;SDS011;40985;53.180;5.800;2023-12-14T07:44:31;12.70;;;7.00;;
55090;SDS011;40985;53.180;5.800;2023-12-14T07:46:58;14.73;;;7.25;;
55090;SDS011;40985;53.180;5.800;2023-12-14T07:49:25;13.63;;;7.22;;
55090;SDS011;40985;53.180;5.800;2023-12-14T07:51:51;10.43;;;6.93;;
55090;SDS011;40985;53.180;5.800;2023-12-14T07:54:17;12.23;;;7.32;;
55090;SDS011;40985;53.180;5.800;2023-12-14T07:56:43;16.10;;;8.38;;
55090;SDS011;40985;53.180;5.800;2023-12-14T07:59:09;14.23;;;8.68;;
55090;SDS011;40985;53.180;5.800;2023-12-14T08:01:35;16.67;;;10.65;;
55090;SDS011;40985;53.180;5.800;2023-12-14T08:04:02;17.42;;;8.73;;
55090;SDS011;40985;53.180;5.800;2023-12-14T08:06:28;13.95;;;8.98;;
55090;SDS011;40985;53.180;5.800;2023-12-14T08:08:54;14.98;;;9.23;;
55090;SDS011;40985;53.180;5.800;2023-12-14T08:11:23;15.65;;;8.95;;
55090;SDS011;40985;53.180;5.800;2023-12-14T08:13:52;16.95;;;8.63;;
55090;SDS011;40985;53.180;5.800;2023-12-14T08:16:18;14.95;;;8.02;;
55090;SDS011;40985;53.180;5.800;2023-12-14T08:18:44;16.60;;;8.30;;
55090;SDS011;40985;53.180;5.800;2023-12-14T08:21:11;15.95;;;8.80;;
55090;SDS011;40985;53.180;5.800;2023-12-14T08:23:37;14.85;;;8.52;;
55090;SDS011;40985;53.180;5.800;2023-12-14T08:26:03;15.85;;;8.50;;
55090;SDS011;40985;53.180;5.800;2023-12-14T08:28:29;16.33;;;8.65;;
55090;SDS011;40985;53.180;5.800;2023-12-14T08:30:54;13.45;;;8.23;;
55090;SDS011;40985;53.180;5.800;2023-12-14T08:33:22;12.90;;;8.60;;
55090;SDS011;40985;53.180;5.800;2023-12-14T08:35:48;13.20;;;8.48;;
55090;SDS011;40985;53.180;5.800;2023-12-14T08:38:15;16.85;;;9.20;;
55090;SDS011;40985;53.180;5.800;2023-12-14T08:40:41;19.55;;;8.98;;
55090;SDS011;40985;53.180;5.800;2023-12-14T08:43:07;17.05;;;8.43;;
55090;SDS011;40985;53.180;5.800;2023-12-14T08:45:33;14.07;;;9.20;;
55090;SDS011;40985;53.180;5.800;2023-12-14T08:47:59;16.17;;;8.18;;
55090;SDS011;40985;53.180;5.800;2023-12-14T08:50:24;16.10;;;8.20;;
55090;SDS011;40985;53.180;5.800;2023-12-14T08:52:51;16.60;;;8.77;;
55090;SDS011;40985;53.180;5.800;2023-12-14T08:55:17;15.93;;;9.73;;
55090;SDS011;40985;53.180;5.800;2023-12-14T08:57:43;14.48;;;9.07;;
55090;SDS011;40985;53.180;5.800;2023-12-14T09:00:09;20.60;;;9.65;;
55090;SDS011;40985;53.180;5.800;2023-12-14T09:02:35;12.70;;;8.88;;
55090;SDS011;40985;53.180;5.800;2023-12-14T09:05:01;15.70;;;8.68;;
55090;SDS011;40985;53.180;5.800;2023-12-14T09:07:27;15.60;;;8.98;;
55090;SDS011;40985;53.180;5.800;2023-12-14T09:09:53;19.35;;;10.15;;
55090;SDS011;40985;53.180;5.800;2023-12-14T09:12:19;23.45;;;10.25;;
55090;SDS011;40985;53.180;5.800;2023-12-14T09:14:44;16.98;;;9.77;;
55090;SDS011;40985;53.180;5.800;2023-12-14T09:17:10;16.67;;;9.70;;
55090;SDS011;40985;53.180;5.800;2023-12-14T09:19:36;18.10;;;9.73;;
55090;SDS011;40985;53.180;5.800;2023-12-14T09:22:01;16.67;;;9.18;;
55090;SDS011;40985;53.180;5.800;2023-12-14T09:24:27;18.60;;;9.13;;
55090;SDS011;40985;53.180;5.800;2023-12-14T09:26:53;17.45;;;9.52;;
55090;SDS011;40985;53.180;5.800;2023-12-14T09:29:19;17.23;;;9.52;;
55090;SDS011;40985;53.180;5.800;2023-12-14T09:31:45;16.67;;;9.60;;
55090;SDS011;40985;53.180;5.800;2023-12-14T09:34:11;18.52;;;9.57;;
55090;SDS011;40985;53.180;5.800;2023-12-14T09:36:37;16.77;;;8.68;;
55090;SDS011;40985;53.180;5.800;2023-12-14T09:39:03;14.65;;;8.52;;
55090;SDS011;40985;53.180;5.800;2023-12-14T09:41:35;14.45;;;8.82;;
55090;SDS011;40985;53.180;5.800;2023-12-14T09:44:03;13.40;;;9.63;;
55090;SDS011;40985;53.180;5.800;2023-12-14T09:46:30;17.98;;;9.68;;
55090;SDS011;40985;53.180;5.800;2023-12-14T09:48:57;16.83;;;9.63;;
55090;SDS011;40985;53.180;5.800;2023-12-14T09:51:25;15.57;;;8.75;;
55090;SDS011;40985;53.180;5.800;2023-12-14T09:53:52;15.68;;;9.32;;
55090;SDS011;40985;53.180;5.800;2023-12-14T09:56:23;15.30;;;8.38;;
55090;SDS011;40985;53.180;5.800;2023-12-14T09:58:50;19.85;;;9.52;;
55090;SDS011;40985;53.180;5.800;2023-12-14T10:01:22;16.60;;;8.32;;
55090;SDS011;40985;53.180;5.800;2023-12-14T10:04:06;15.30;;;9.48;;
55090;SDS011;40985;53.180;5.800;2023-12-14T10:06:36;18.25;;;9.27;;
55090;SDS011;40985;53.180;5.800;2023-12-14T10:09:06;14.35;;;8.55;;
55090;SDS011;40985;53.180;5.800;2023-12-14T10:11:38;15.98;;;10.07;;
55090;SDS011;40985;53.180;5.800;2023-12-14T10:14:21;16.45;;;10.05;;
55090;SDS011;40985;53.180;5.800;2023-12-14T10:16:49;13.30;;;8.30;;
55090;SDS011;40985;53.180;5.800;2023-12-14T10:19:19;12.85;;;9.27;;
55090;SDS011;40985;53.180;5.800;2023-12-14T10:21:45;14.05;;;8.43;;
55090;SDS011;40985;53.180;5.800;2023-12-14T10:24:15;17.30;;;9.68;;
55090;SDS011;40985;53.180;5.800;2023-12-14T10:26:44;13.13;;;8.88;;
55090;SDS011;40985;53.180;5.800;2023-12-14T10:29:10;14.52;;;9.00;;
55090;SDS011;40985;53.180;5.800;2023-12-14T10:31:36;10.82;;;7.63;;
55090;SDS011;40985;53.180;5.800;2023-12-14T10:34:05;15.77;;;8.75;;
55090;SDS011;40985;53.180;5.800;2023-12-14T10:36:31;13.40;;;8.65;;
55090;SDS011;40985;53.180;5.800;2023-12-14T10:38:58;16.30;;;8.73;;
55090;SDS011;40985;53.180;5.800;2023-12-14T10:41:25;13.65;;;7.38;;
55090;SDS011;40985;53.180;5.800;2023-12-14T10:43:53;11.98;;;8.75;;
55090;SDS011;40985;53.180;5.800;2023-12-14T10:46:20;14.90;;;8.20;;
55090;SDS011;40985;53.180;5.800;2023-12-14T10:48:49;12.50;;;7.88;;
55090;SDS011;40985;53.180;5.800;2023-12-14T10:51:20;15.18;;;7.93;;
55090;SDS011;40985;53.180;5.800;2023-12-14T10:53:47;13.70;;;7.93;;
55090;SDS011;40985;53.180;5.800;2023-12-14T10:56:14;13.02;;;8.30;;
55090;SDS011;40985;53.180;5.800;2023-12-14T10:58:45;9.70;;;7.40;;
55090;SDS011;40985;53.180;5.800;2023-12-14T11:01:16;14.90;;;8.52;;
55090;SDS011;40985;53.180;5.800;2023-12-14T11:03:43;16.27;;;9.45;;
55090;SDS011;40985;53.180;5.800;2023-12-14T11:06:19;13.27;;;8.38;;
55090;SDS011;40985;53.180;5.800;2023-12-14T11:08:55;12.25;;;8.77;;
55090;SDS011;40985;53.180;5.800;2023-12-14T11:11:25;11.90;;;7.97;;
55090;SDS011;40985;53.180;5.800;2023-12-14T11:13:53;14.13;;;8.18;;
55090;SDS011;40985;53.180;5.800;2023-12-14T11:16:20;12.18;;;8.02;;
55090;SDS011;40985;53.180;5.800;2023-12-14T11:18:52;17.73;;;8.68;;
55090;SDS011;40985;53.180;5.800;2023-12-14T11:21:46;17.92;;;9.68;;
55090;SDS011;40985;53.180;5.800;2023-12-14T11:24:37;10.88;;;8.80;;
55090;SDS011;40985;53.180;5.800;2023-12-14T11:27:07;14.32;;;8.40;;
55090;SDS011;40985;53.180;5.800;2023-12-14T11:29:33;11.80;;;8.10;;
55090;SDS011;40985;53.180;5.800;2023-12-14T11:32:00;11.40;;;8.65;;
55090;SDS011;40985;53.180;5.800;2023-12-14T11:34:26;15.05;;;8.95;;
55090;SDS011;40985;53.180;5.800;2023-12-14T11:36:53;11.43;;;7.97;;
55090;SDS011;40985;53.180;5.800;2023-12-14T11:39:20;13.18;;;8.45;;
55090;SDS011;40985;53.180;5.800;2023-12-14T11:42:05;11.05;;;8.90;;
55090;SDS011;40985;53.180;5.800;2023-12-14T11:44:35;9.88;;;8.13;;
55090;SDS011;40985;53.180;5.800;2023-12-14T11:47:02;13.32;;;8.98;;
55090;SDS011;40985;53.180;5.800;2023-12-14T11:49:28;12.93;;;8.82;;
55090;SDS011;40985;53.180;5.800;2023-12-14T11:51:57;13.25;;;8.02;;
55090;SDS011;40985;53.180;5.800;2023-12-14T11:54:27;13.13;;;9.00;;
55090;SDS011;40985;53.180;5.800;2023-12-14T11:56:53;11.55;;;8.55;;
55090;SDS011;40985;53.180;5.800;2023-12-14T11:59:18;15.88;;;8.82;;
55090;SDS011;40985;53.180;5.800;2023-12-14T12:01:57;13.38;;;8.73;;
55090;SDS011;40985;53.180;5.800;2023-12-14T12:04:25;12.88;;;9.05;;
55090;SDS011;40985;53.180;5.800;2023-12-14T12:07:01;11.75;;;8.55;;
55090;SDS011;40985;53.180;5.800;2023-12-14T12:09:38;15.43;;;8.60;;
55090;SDS011;40985;53.180;5.800;2023-12-14T12:12:07;15.00;;;8.63;;
55090;SDS011;40985;53.180;5.800;2023-12-14T12:14:34;13.82;;;8.60;;
55090;SDS011;40985;53.180;5.800;2023-12-14T12:17:01;15.15;;;7.53;;
55090;SDS011;40985;53.180;5.800;2023-12-14T12:19:26;12.88;;;7.30;;
55090;SDS011;40985;53.180;5.800;2023-12-14T12:21:52;10.48;;;7.03;;
55090;SDS011;40985;53.180;5.800;2023-12-14T12:24:18;13.82;;;8.20;;
55090;SDS011;40985;53.180;5.800;2023-12-14T12:26:43;13.95;;;7.75;;
55090;SDS011;40985;53.180;5.800;2023-12-14T12:29:09;12.93;;;7.80;;
55090;SDS011;40985;53.180;5.800;2023-12-14T12:31:35;13.43;;;7.78;;
55090;SDS011;40985;53.180;5.800;2023-12-14T12:34:02;12.25;;;7.53;;
55090;SDS011;40985;53.180;5.800;2023-12-14T12:36:27;13.57;;;8.70;;
55090;SDS011;40985;53.180;5.800;2023-12-14T12:38:53;16.23;;;8.90;;
55090;SDS011;40985;53.180;5.800;2023-12-14T12:41:19;10.55;;;6.35;;
55090;SDS011;40985;53.180;5.800;2023-12-14T12:43:44;12.73;;;6.50;;
55090;SDS011;40985;53.180;5.800;2023-12-14T12:46:10;12.80;;;7.18;;
55090;SDS011;40985;53.180;5.800;2023-12-14T12:48:36;13.18;;;7.40;;
55090;SDS011;40985;53.180;5.800;2023-12-14T12:51:02;11.20;;;7.93;;
55090;SDS011;40985;53.180;5.800;2023-12-14T12:53:28;10.95;;;7.22;;
55090;SDS011;40985;53.180;5.800;2023-12-14T12:55:53;10.82;;;6.80;;
55090;SDS011;40985;53.180;5.800;2023-12-14T12:58:19;8.70;;;6.47;;
55090;SDS011;40985;53.180;5.800;2023-12-14T13:00:45;8.10;;;6.80;;
55090;SDS011;40985;53.180;5.800;2023-12-14T13:03:11;12.50;;;6.10;;
55090;SDS011;40985;53.180;5.800;2023-12-14T13:05:37;9.65;;;6.72;;
55090;SDS011;40985;53.180;5.800;2023-12-14T13:08:03;10.98;;;7.15;;
55090;SDS011;40985;53.180;5.800;2023-12-14T13:10:29;9.90;;;6.50;;
55090;SDS011;40985;53.180;5.800;2023-12-14T13:12:55;9.38;;;6.50;;
55090;SDS011;40985;53.180;5.800;2023-12-14T13:15:21;10.25;;;7.18;;
55090;SDS011;40985;53.180;5.800;2023-12-14T13:17:51;9.40;;;6.90;;
55090;SDS011;40985;53.180;5.800;2023-12-14T13:20:17;11.02;;;6.50;;
55090;SDS011;40985;53.180;5.800;2023-12-14T13:22:44;10.23;;;6.90;;
55090;SDS011;40985;53.180;5.800;2023-12-14T13:25:10;9.30;;;6.80;;
55090;SDS011;40985;53.180;5.800;2023-12-14T13:27:36;10.40;;;6.18;;
55090;SDS011;40985;53.180;5.800;2023-12-14T13:30:02;10.23;;;7.03;;
55090;SDS011;40985;53.180;5.800;2023-12-14T13:32:29;9.88;;;7.18;;
55090;SDS011;40985;53.180;5.800;2023-12-14T13:34:55;9.73;;;7.07;;
55090;SDS011;40985;53.180;5.800;2023-12-14T13:37:20;11.57;;;7.95;;
55090;SDS011;40985;53.180;5.800;2023-12-14T13:39:46;14.27;;;8.25;;
55090;SDS011;40985;53.180;5.800;2023-12-14T13:42:13;12.13;;;7.82;;
55090;SDS011;40985;53.180;5.800;2023-12-14T13:44:40;11.80;;;7.32;;
55090;SDS011;40985;53.180;5.800;2023-12-14T13:47:06;9.15;;;7.00;;
55090;SDS011;40985;53.180;5.800;2023-12-14T13:49:32;10.07;;;7.28;;
55090;SDS011;40985;53.180;5.800;2023-12-14T13:51:58;11.68;;;7.15;;
55090;SDS011;40985;53.180;5.800;2023-12-14T13:54:24;9.02;;;7.00;;
55090;SDS011;40985;53.180;5.800;2023-12-14T13:56:50;11.90;;;7.72;;
55090;SDS011;40985;53.180;5.800;2023-12-14T13:59:15;10.30;;;7.07;;
55090;SDS011;40985;53.180;5.800;2023-12-14T14:01:41;10.23;;;6.82;;
55090;SDS011;40985;53.180;5.800;2023-12-14T14:04:06;9.20;;;7.00;;
55090;SDS011;40985;53.180;5.800;2023-12-14T14:06:34;8.60;;;6.97;;
55090;SDS011;40985;53.180;5.800;2023-12-14T14:09:00;10.35;;;7.57;;
55090;SDS011;40985;53.180;5.800;2023-12-14T14:11:26;12.77;;;8.85;;
55090;SDS011;40985;53.180;5.800;2023-12-14T14:13:51;14.15;;;7.47;;
55090;SDS011;40985;53.180;5.800;2023-12-14T14:16:17;10.73;;;7.88;;
55090;SDS011;40985;53.180;5.800;2023-12-14T14:18:43;10.05;;;8.65;;
55090;SDS011;40985;53.180;5.800;2023-12-14T14:21:08;12.18;;;9.05;;
55090;SDS011;40985;53.180;5.800;2023-12-14T14:23:34;13.30;;;9.88;;
55090;SDS011;40985;53.180;5.800;2023-12-14T14:26:00;11.73;;;8.45;;
55090;SDS011;40985;53.180;5.800;2023-12-14T14:28:26;13.15;;;8.05;;
55090;SDS011;40985;53.180;5.800;2023-12-14T14:30:52;11.90;;;8.15;;
55090;SDS011;40985;53.180;5.800;2023-12-14T14:33:18;12.85;;;8.60;;
55090;SDS011;40985;53.180;5.800;2023-12-14T14:35:44;13.43;;;8.73;;